createdAt,value
2023-03-05T00:01:57.523Z,4.00
2023-03-05T00:04:25.794Z,4.00
2023-03-05T00:06:53.003Z,4.00
2023-03-05T00:09:20.479Z,4.00
2023-03-05T00:11:47.879Z,4.00
2023-03-05T00:14:15.124Z,4.00
2023-03-05T00:16:42.124Z,4.00
2023-03-05T00:19:10.002Z,4.00
2023-03-05T00:21:38.732Z,4.00
2023-03-05T00:24:07.770Z,4.00
2023-03-05T00:26:35.886Z,4.00
2023-03-05T00:29:04.181Z,4.00
2023-03-05T00:31:32.031Z,3.90
2023-03-05T00:34:01.811Z,3.90
2023-03-05T00:36:28.985Z,3.90
2023-03-05T00:38:55.983Z,4.00
2023-03-05T00:41:22.885Z,4.00
2023-03-05T00:43:50.105Z,3.90
2023-03-05T00:46:17.348Z,3.90
2023-03-05T00:48:44.714Z,4.00
2023-03-05T00:51:12.293Z,4.00
2023-03-05T00:53:39.425Z,4.00
2023-03-05T00:56:07.300Z,4.00
2023-03-05T00:58:34.743Z,4.10
2023-03-05T01:01:02.951Z,4.10
2023-03-05T01:03:30.448Z,4.20
2023-03-05T01:05:57.893Z,4.10
2023-03-05T01:08:25.232Z,4.00
2023-03-05T01:10:52.680Z,4.00
2023-03-05T01:13:20.127Z,4.00
2023-03-05T01:15:48.947Z,4.00
2023-03-05T01:18:16.624Z,4.00
2023-03-05T01:20:43.798Z,3.90
2023-03-05T01:23:11.025Z,3.90
2023-03-05T01:25:38.242Z,3.90
2023-03-05T01:28:05.967Z,3.90
2023-03-05T01:30:33.187Z,3.90
2023-03-05T01:33:00.382Z,3.90
2023-03-05T01:35:27.657Z,3.90
2023-03-05T01:37:55.109Z,3.80
2023-03-05T01:40:26.174Z,3.80
2023-03-05T01:43:01.935Z,3.70
2023-03-05T01:45:31.976Z,3.70
2023-03-05T01:47:59.917Z,3.70
2023-03-05T01:50:27.152Z,3.70
2023-03-05T01:53:26.817Z,3.70
2023-03-05T01:55:55.997Z,3.70
2023-03-05T01:58:23.687Z,3.70
2023-03-05T02:00:52.722Z,3.70
2023-03-05T02:03:19.599Z,3.70
2023-03-05T02:05:46.959Z,3.70
2023-03-05T02:08:15.544Z,3.70
2023-03-05T02:10:46.486Z,3.70
2023-03-05T02:13:15.582Z,3.70
2023-03-05T02:15:42.839Z,3.60
2023-03-05T02:18:10.548Z,3.60
2023-03-05T02:20:51.791Z,3.60
2023-03-05T02:23:21.091Z,3.60
2023-03-05T02:25:48.456Z,3.60
2023-03-05T02:28:24.292Z,3.60
2023-03-05T02:30:51.129Z,3.50
2023-03-05T02:33:18.273Z,3.60
2023-03-05T02:35:46.363Z,3.50
2023-03-05T02:38:15.078Z,3.60
2023-03-05T02:40:42.019Z,3.60
2023-03-05T02:43:09.649Z,3.60
2023-03-05T02:45:37.281Z,3.60
2023-03-05T02:48:04.535Z,3.60
2023-03-05T02:50:31.892Z,3.60
2023-03-05T02:52:59.111Z,3.60
2023-03-05T02:55:26.470Z,3.60
2023-03-05T02:57:53.440Z,3.60
2023-03-05T03:00:21.329Z,3.60
2023-03-05T03:02:49.635Z,3.50
2023-03-05T03:05:17.640Z,3.50
2023-03-05T03:07:45.206Z,3.40
2023-03-05T03:10:13.403Z,3.40
2023-03-05T03:12:41.324Z,3.40
2023-03-05T03:15:08.768Z,3.40
2023-03-05T03:17:36.019Z,3.40
2023-03-05T03:20:04.355Z,3.40
2023-03-05T03:22:31.515Z,3.40
2023-03-05T03:24:59.179Z,3.40
2023-03-05T03:27:26.288Z,3.40
2023-03-05T03:29:53.611Z,3.50
2023-03-05T03:32:20.760Z,3.50
2023-03-05T03:34:48.495Z,3.50
2023-03-05T03:37:15.960Z,3.50
2023-03-05T03:39:42.801Z,3.50
2023-03-05T03:42:10.519Z,3.50
2023-03-05T03:44:37.549Z,3.50
2023-03-05T03:47:05.128Z,3.50
2023-03-05T03:49:32.372Z,3.50
2023-03-05T03:51:59.506Z,3.50
2023-03-05T03:54:27.113Z,3.50
2023-03-05T03:56:54.452Z,3.50
2023-03-05T03:59:21.567Z,3.60
2023-03-05T04:01:48.863Z,3.50
2023-03-05T04:04:15.615Z,3.50
2023-03-05T04:06:42.508Z,3.60
2023-03-05T04:09:10.117Z,3.60
2023-03-05T04:11:37.547Z,3.60
2023-03-05T04:14:04.927Z,3.60
2023-03-05T04:16:32.321Z,3.50
2023-03-05T04:18:59.816Z,3.60
2023-03-05T04:21:26.754Z,3.60
2023-03-05T04:23:53.893Z,3.60
2023-03-05T04:26:21.164Z,3.60
2023-03-05T04:28:49.432Z,3.60
2023-03-05T04:31:17.280Z,3.60
2023-03-05T04:33:44.802Z,3.60
2023-03-05T04:36:11.524Z,3.60
2023-03-05T04:38:38.845Z,3.60
2023-03-05T04:41:05.812Z,3.50
2023-03-05T04:43:33.300Z,3.50
2023-03-05T04:46:01.219Z,3.50
2023-03-05T04:48:29.433Z,3.50
2023-03-05T04:50:57.898Z,3.50
2023-03-05T04:53:25.171Z,3.40
2023-03-05T04:55:55.509Z,3.50
2023-03-05T04:58:23.296Z,3.40
2023-03-05T05:00:50.372Z,3.40
2023-03-05T05:03:17.628Z,3.40
2023-03-05T05:05:44.903Z,3.40
2023-03-05T05:08:12.422Z,3.50
2023-03-05T05:10:40.226Z,3.50
2023-03-05T05:13:07.733Z,3.50
2023-03-05T05:15:34.770Z,3.50
2023-03-05T05:18:01.904Z,3.50
2023-03-05T05:20:29.548Z,3.50
2023-03-05T05:22:56.633Z,3.50
2023-03-05T05:25:23.718Z,3.50
2023-03-05T05:27:51.459Z,3.50
2023-03-05T05:30:18.881Z,3.40
2023-03-05T05:32:46.193Z,3.40
2023-03-05T05:35:13.614Z,3.40
2023-03-05T05:37:40.704Z,3.50
2023-03-05T05:40:12.106Z,3.50
2023-03-05T05:42:39.276Z,3.50
2023-03-05T05:45:06.788Z,3.50
2023-03-05T05:47:33.906Z,3.40
2023-03-05T05:50:00.954Z,3.40
2023-03-05T05:52:28.393Z,3.50
2023-03-05T05:54:55.787Z,3.50
2023-03-05T05:57:22.719Z,3.50
2023-03-05T05:59:49.525Z,3.50
2023-03-05T06:02:16.625Z,3.50
2023-03-05T06:04:44.068Z,3.50
2023-03-05T06:07:11.121Z,3.40
2023-03-05T06:09:38.232Z,3.50
2023-03-05T06:12:06.795Z,3.40
2023-03-05T06:14:33.958Z,3.50
2023-03-05T06:17:00.943Z,3.40
2023-03-05T06:19:28.521Z,3.50
2023-03-05T06:21:55.644Z,3.50
2023-03-05T06:24:23.026Z,3.40
2023-03-05T06:26:50.196Z,3.40
2023-03-05T06:29:17.849Z,3.40
2023-03-05T06:31:45.122Z,3.40
2023-03-05T06:34:12.280Z,3.30
2023-03-05T06:36:39.575Z,3.40
2023-03-05T06:39:06.571Z,3.40
2023-03-05T06:41:33.474Z,3.40
2023-03-05T06:44:02.311Z,3.40
2023-03-05T06:46:34.762Z,3.40
2023-03-05T06:49:02.474Z,3.40
2023-03-05T06:51:31.114Z,3.40
2023-03-05T06:54:01.008Z,3.40
2023-03-05T06:56:28.588Z,3.50
2023-03-05T06:58:55.368Z,3.50
2023-03-05T07:01:23.542Z,3.50
2023-03-05T07:03:51.261Z,3.60
2023-03-05T07:06:18.319Z,3.60
2023-03-05T07:08:45.127Z,3.60
2023-03-05T07:11:12.815Z,3.60
2023-03-05T07:13:39.839Z,3.60
2023-03-05T07:16:10.910Z,3.70
2023-03-05T07:18:38.126Z,3.70
2023-03-05T07:21:06.701Z,3.70
2023-03-05T07:23:34.380Z,3.70
2023-03-05T07:26:05.124Z,3.70
2023-03-05T07:28:32.084Z,3.70
2023-03-05T07:31:12.283Z,3.70
2023-03-05T07:33:39.286Z,3.80
2023-03-05T07:36:08.658Z,3.80
2023-03-05T07:38:36.108Z,3.80
2023-03-05T07:41:08.211Z,3.90
2023-03-05T07:43:35.091Z,3.90
2023-03-05T07:46:08.050Z,4.00
2023-03-05T07:48:35.311Z,4.00
2023-03-05T07:51:06.645Z,4.10
2023-03-05T07:53:34.324Z,4.10
2023-03-05T07:56:01.706Z,4.10
2023-03-05T07:58:28.736Z,4.20
2023-03-05T08:00:55.888Z,4.20
2023-03-05T08:03:23.414Z,4.20
2023-03-05T08:05:50.677Z,4.30
2023-03-05T08:08:17.671Z,4.30
2023-03-05T08:10:45.059Z,4.30
2023-03-05T08:13:11.857Z,4.30
2023-03-05T08:15:39.069Z,4.30
2023-03-05T08:18:06.041Z,4.30
2023-03-05T08:20:35.642Z,4.40
2023-03-05T08:23:03.581Z,4.30
2023-03-05T08:25:31.358Z,4.30
2023-03-05T08:27:58.864Z,4.40
2023-03-05T08:30:27.406Z,4.40
2023-03-05T08:37:23.296Z,4.40
2023-03-05T08:39:50.464Z,4.40
2023-03-05T08:42:23.590Z,4.30
2023-03-05T08:44:58.753Z,4.30
2023-03-05T08:47:27.052Z,4.40
2023-03-05T08:49:55.884Z,4.40
2023-03-05T08:52:23.541Z,4.40
2023-03-05T08:55:08.025Z,4.30
2023-03-05T08:57:37.536Z,4.50
2023-03-05T09:00:05.317Z,4.50
2023-03-05T09:02:32.383Z,4.60
2023-03-05T09:04:59.572Z,4.60
2023-03-05T09:07:26.430Z,4.70
2023-03-05T09:09:53.366Z,4.70
2023-03-05T09:12:20.132Z,4.80
2023-03-05T09:14:47.811Z,4.80
2023-03-05T09:17:15.544Z,4.80
2023-03-05T09:19:42.731Z,4.80
2023-03-05T09:22:10.280Z,4.90
2023-03-05T09:25:28.454Z,4.90
2023-03-05T09:27:57.134Z,4.90
2023-03-05T09:30:25.167Z,4.90
2023-03-05T09:32:52.136Z,5.00
2023-03-05T09:35:19.620Z,4.90
2023-03-05T09:37:47.036Z,4.90
2023-03-05T09:40:18.482Z,4.90
2023-03-05T09:43:27.061Z,5.00
2023-03-05T09:46:06.367Z,5.10
2023-03-05T09:48:50.018Z,5.20
2023-03-05T09:51:23.368Z,5.20
2023-03-05T09:54:06.634Z,5.30
2023-03-05T09:56:41.764Z,5.40
2023-03-05T09:59:19.879Z,5.50
2023-03-05T10:02:04.192Z,5.50
2023-03-05T10:04:47.379Z,5.50
2023-03-05T10:07:30.522Z,5.60
2023-03-05T10:10:03.137Z,5.70
2023-03-05T10:12:46.643Z,5.70
2023-03-05T10:15:14.375Z,5.70
2023-03-05T10:18:03.359Z,5.70
2023-03-05T10:20:52.427Z,5.90
2023-03-05T10:23:26.127Z,5.80
2023-03-05T10:26:04.216Z,5.70
2023-03-05T10:28:38.957Z,5.70
2023-03-05T10:31:09.321Z,5.70
2023-03-05T10:34:06.307Z,5.70
2023-03-05T10:36:46.030Z,5.60
2023-03-05T10:39:33.852Z,5.60
2023-03-05T10:42:23.522Z,5.60
2023-03-05T10:44:58.184Z,5.60
2023-03-05T10:47:45.272Z,5.50
2023-03-05T10:50:20.877Z,5.50
2023-03-05T10:52:52.438Z,5.50
2023-03-05T10:55:20.806Z,5.50
2023-03-05T10:58:19.972Z,5.50
2023-03-05T11:01:12.476Z,5.50
2023-03-05T11:03:52.709Z,5.30
2023-03-05T11:06:50.498Z,5.30
2023-03-05T11:09:30.030Z,5.30
2023-03-05T11:12:09.991Z,5.20
2023-03-05T11:14:38.960Z,5.30
2023-03-05T11:17:43.221Z,5.20
2023-03-05T11:20:31.569Z,5.30
2023-03-05T11:23:17.624Z,5.20
2023-03-05T11:25:50.531Z,5.30
2023-03-05T11:28:32.981Z,5.30
2023-03-05T11:31:02.650Z,5.40
2023-03-05T11:33:29.816Z,5.40
2023-03-05T11:36:22.569Z,5.40
2023-03-05T11:39:08.450Z,5.50
2023-03-05T11:41:39.524Z,5.50
2023-03-05T11:44:14.901Z,5.50
2023-03-05T11:46:50.705Z,5.50
2023-03-05T11:49:31.988Z,5.50
2023-03-05T11:52:26.784Z,5.50
2023-03-05T11:55:03.001Z,5.50
2023-03-05T11:57:33.567Z,5.50
2023-03-05T12:00:00.389Z,5.50
2023-03-05T12:02:28.115Z,5.50
2023-03-05T12:04:56.117Z,5.50
2023-03-05T12:07:33.206Z,5.60
2023-03-05T12:10:02.438Z,5.60
2023-03-05T12:12:58.782Z,5.60
2023-03-05T12:18:29.648Z,5.70
2023-03-05T12:21:15.662Z,5.80
2023-03-05T12:23:49.255Z,5.70
2023-03-05T12:26:16.633Z,5.80
2023-03-05T12:28:44.339Z,5.90
2023-03-05T12:31:38.235Z,5.90
2023-03-05T12:34:39.615Z,5.90
2023-03-05T12:37:22.007Z,5.90
2023-03-05T12:40:09.032Z,5.90
2023-03-05T12:42:38.828Z,5.90
2023-03-05T12:45:11.985Z,6.00
2023-03-05T12:47:40.617Z,6.10
2023-03-05T12:50:28.615Z,6.10
2023-03-05T12:52:57.146Z,6.20
2023-03-05T12:55:28.104Z,6.30
2023-03-05T12:57:59.225Z,6.30
2023-03-05T13:00:28.483Z,6.30
2023-03-05T13:02:58.667Z,6.30
2023-03-05T13:05:33.598Z,6.30
2023-03-05T13:08:25.185Z,6.30
2023-03-05T13:10:54.193Z,6.30
2023-03-05T13:13:21.939Z,6.40
2023-03-05T13:15:49.403Z,6.40
2023-03-05T13:18:22.992Z,6.50
2023-03-05T13:21:05.743Z,6.50
2023-03-05T13:23:34.255Z,6.40
2023-03-05T13:26:19.413Z,6.30
2023-03-05T13:29:17.985Z,6.30
2023-03-05T13:31:45.810Z,6.20
2023-03-05T13:34:32.020Z,6.10
2023-03-05T13:37:04.077Z,6.00
2023-03-05T13:39:41.010Z,6.00
2023-03-05T13:42:16.799Z,6.00
2023-03-05T13:44:43.954Z,6.00
2023-03-05T13:47:19.924Z,6.10
2023-03-05T13:49:47.635Z,6.20
2023-03-05T13:52:29.913Z,6.20
2023-03-05T13:54:57.896Z,6.20
2023-03-05T13:57:41.379Z,6.10
2023-03-05T14:00:25.426Z,6.10
2023-03-05T14:02:53.188Z,6.10
2023-03-05T14:05:20.185Z,6.00
2023-03-05T14:07:50.752Z,6.00
2023-03-05T14:10:57.282Z,6.00
2023-03-05T14:13:27.033Z,6.00
2023-03-05T14:16:10.069Z,6.00
2023-03-05T14:18:37.444Z,6.00
2023-03-05T14:21:07.612Z,5.90
2023-03-05T14:23:37.078Z,5.90
2023-03-05T14:26:29.210Z,5.80
2023-03-05T14:29:06.618Z,5.80
2023-03-05T14:31:56.115Z,5.80
2023-03-05T14:34:29.030Z,5.80
2023-03-05T14:37:03.249Z,5.70
2023-03-05T14:39:51.586Z,5.70
2023-03-05T14:42:31.454Z,5.80
2023-03-05T14:45:00.963Z,5.90
2023-03-05T14:47:28.505Z,5.80
2023-03-05T14:49:55.684Z,5.80
2023-03-05T14:52:24.436Z,5.80
2023-03-05T14:54:51.864Z,5.80
2023-03-05T14:57:21.212Z,5.90
2023-03-05T14:59:48.505Z,5.90
2023-03-05T15:02:20.100Z,5.90
2023-03-05T15:04:47.246Z,5.90
2023-03-05T15:07:19.563Z,5.90
2023-03-05T15:09:47.457Z,5.90
2023-03-05T15:12:15.188Z,5.90
2023-03-05T15:14:43.455Z,6.00
2023-03-05T15:17:17.755Z,5.90
2023-03-05T15:19:47.201Z,5.80
2023-03-05T15:22:14.909Z,5.80
2023-03-05T15:24:42.458Z,5.90
2023-03-05T15:27:10.030Z,5.90
2023-03-05T15:29:36.806Z,6.00
2023-03-05T15:32:04.894Z,6.00
2023-03-05T15:34:33.645Z,6.00
2023-03-05T15:37:02.072Z,6.00
2023-03-05T15:39:30.281Z,6.00
2023-03-05T15:41:57.736Z,6.00
2023-03-05T15:44:24.764Z,5.90
2023-03-05T15:46:52.393Z,6.00
2023-03-05T15:49:20.070Z,5.90
2023-03-05T15:51:50.009Z,5.80
2023-03-05T15:54:17.663Z,5.80
2023-03-05T15:56:44.959Z,5.80
2023-03-05T15:59:13.542Z,5.70
2023-03-05T16:01:41.549Z,5.60
2023-03-05T16:04:08.682Z,5.60
2023-03-05T16:06:35.452Z,5.50
2023-03-05T16:09:04.280Z,5.50
2023-03-05T16:11:32.255Z,5.40
2023-03-05T16:14:01.739Z,5.40
2023-03-05T16:16:29.508Z,5.40
2023-03-05T16:18:57.628Z,5.30
2023-03-05T16:21:24.725Z,5.30
2023-03-05T16:23:51.540Z,5.30
2023-03-05T16:26:19.119Z,5.30
2023-03-05T16:28:46.613Z,5.30
2023-03-05T16:31:13.491Z,5.20
2023-03-05T16:33:40.341Z,5.30
2023-03-05T16:36:20.850Z,5.20
2023-03-05T16:38:48.835Z,5.20
2023-03-05T16:41:16.549Z,5.20
2023-03-05T16:43:44.563Z,5.10
2023-03-05T16:46:12.614Z,5.10
2023-03-05T16:48:40.269Z,5.10
2023-03-05T16:51:07.150Z,5.10
2023-03-05T16:53:34.371Z,5.10
2023-03-05T16:56:06.520Z,5.10
2023-03-05T16:58:33.628Z,5.10
2023-03-05T17:01:01.395Z,5.20
2023-03-05T17:03:32.517Z,5.10
2023-03-05T17:06:18.757Z,5.10
2023-03-05T17:08:47.479Z,5.10
2023-03-05T17:11:14.679Z,5.00
2023-03-05T17:13:43.026Z,5.00
2023-03-05T17:16:11.271Z,5.00
2023-03-05T17:18:38.393Z,5.00
2023-03-05T17:21:08.965Z,5.00
2023-03-05T17:23:42.654Z,5.00
2023-03-05T17:26:12.311Z,5.00
2023-03-05T17:29:09.122Z,4.90
2023-03-05T17:31:40.048Z,4.90
2023-03-05T17:34:14.130Z,4.90
2023-03-05T17:36:42.256Z,4.90
2023-03-05T17:39:09.053Z,4.90
2023-03-05T17:42:01.474Z,4.90
2023-03-05T17:44:54.339Z,4.90
2023-03-05T17:47:26.420Z,4.80
2023-03-05T17:49:54.951Z,4.80
2023-03-05T17:52:25.978Z,4.80
2023-03-05T17:54:57.340Z,4.80
2023-03-05T18:00:26.295Z,4.80
2023-03-05T18:03:10.360Z,4.80
2023-03-05T18:05:38.356Z,4.80
2023-03-05T18:08:05.493Z,4.70
2023-03-05T18:10:43.249Z,4.70
2023-03-05T18:13:10.740Z,4.70
2023-03-05T18:15:47.580Z,4.70
2023-03-05T18:18:17.806Z,4.70
2023-03-05T18:20:44.892Z,4.70
2023-03-05T18:23:12.343Z,4.70
2023-03-05T18:26:07.927Z,4.60
2023-03-05T18:28:36.259Z,4.60
2023-03-05T18:31:03.457Z,4.70
2023-03-05T18:33:30.419Z,4.70
2023-03-05T18:35:58.301Z,4.70
2023-03-05T18:38:30.517Z,4.70
2023-03-05T18:40:57.832Z,4.60
2023-03-05T18:43:25.208Z,4.60
2023-03-05T18:45:53.855Z,4.60
2023-03-05T18:48:22.773Z,4.60
2023-03-05T18:50:52.001Z,4.60
2023-03-05T18:53:19.329Z,4.60
2023-03-05T18:55:49.739Z,4.60
2023-03-05T18:58:19.793Z,4.60
2023-03-05T19:00:47.147Z,4.50
2023-03-05T19:03:15.625Z,4.50
2023-03-05T19:05:42.870Z,4.50
2023-03-05T19:08:10.828Z,4.50
2023-03-05T19:10:38.006Z,4.50
2023-03-05T19:13:40.010Z,4.60
2023-03-05T19:16:14.113Z,4.50
2023-03-05T19:19:16.824Z,4.40
2023-03-05T19:21:45.090Z,4.40
2023-03-05T19:24:12.785Z,4.50
2023-03-05T19:26:41.653Z,4.50
2023-03-05T19:29:08.864Z,4.50
2023-03-05T19:31:35.951Z,4.50
2023-03-05T19:34:03.363Z,4.50
2023-03-05T19:36:34.942Z,4.40
2023-03-05T19:39:04.199Z,4.40
2023-03-05T19:41:31.769Z,4.40
2023-03-05T19:43:59.293Z,4.40
2023-03-05T19:49:15.138Z,4.40
2023-03-05T19:51:43.962Z,4.40
2023-03-05T19:54:14.542Z,4.40
2023-03-05T19:56:41.832Z,4.30
2023-03-05T19:59:08.756Z,4.30
2023-03-05T20:01:35.888Z,4.30
2023-03-05T20:04:03.987Z,4.30
2023-03-05T20:06:31.555Z,4.30
2023-03-05T20:08:58.824Z,4.30
2023-03-05T20:11:25.947Z,4.20
2023-03-05T20:14:01.994Z,4.20
2023-03-05T20:16:39.037Z,4.10
2023-03-05T20:19:10.785Z,4.10
2023-03-05T20:21:40.691Z,4.10
2023-03-05T20:24:10.003Z,4.10
2023-03-05T20:26:39.884Z,4.10
2023-03-05T20:29:08.076Z,4.10
2023-03-05T20:31:36.818Z,4.00
2023-03-05T20:34:08.743Z,4.10
2023-03-05T20:36:35.958Z,4.10
2023-03-05T20:39:03.845Z,4.10
2023-03-05T20:41:30.832Z,4.10
2023-03-05T20:43:58.274Z,4.10
2023-03-05T20:49:11.661Z,4.10
2023-03-05T20:51:39.210Z,4.10
2023-03-05T20:54:09.576Z,4.10
2023-03-05T20:56:36.808Z,4.10
2023-03-05T20:59:05.044Z,4.10
2023-03-05T21:01:33.215Z,4.00
2023-03-05T21:04:01.123Z,4.00
2023-03-05T21:06:28.575Z,4.00
2023-03-05T21:08:55.786Z,3.90
2023-03-05T21:11:23.156Z,3.90
2023-03-05T21:13:50.301Z,3.90
2023-03-05T21:16:19.317Z,3.90
2023-03-05T21:18:46.472Z,4.00
2023-03-05T21:21:13.382Z,3.90
2023-03-05T21:23:40.530Z,3.90
2023-03-05T21:26:07.448Z,3.90
2023-03-05T21:28:34.530Z,3.90
2023-03-05T21:31:09.520Z,3.90
2023-03-05T21:33:36.570Z,3.90
2023-03-05T21:38:48.333Z,3.90
2023-03-05T21:41:15.784Z,3.90
2023-03-05T21:43:45.232Z,3.80
2023-03-05T21:46:13.600Z,3.80
2023-03-05T21:48:42.556Z,3.80
2023-03-05T21:52:03.360Z,3.80
2023-03-05T21:54:32.600Z,3.80
2023-03-05T21:57:00.705Z,3.80
2023-03-05T21:59:27.764Z,3.80
2023-03-05T22:01:55.187Z,3.80
2023-03-05T22:04:25.980Z,3.70
2023-03-05T22:06:53.244Z,3.70
2023-03-05T22:09:20.442Z,3.80
2023-03-05T22:11:47.562Z,3.80
2023-03-05T22:14:16.203Z,3.80
2023-03-05T22:16:43.857Z,3.70
2023-03-05T22:19:11.447Z,3.70
2023-03-05T22:21:38.314Z,3.70
2023-03-05T22:24:05.418Z,3.70
2023-03-05T22:26:39.712Z,3.70
2023-03-05T22:29:08.479Z,3.70
2023-03-05T22:31:38.066Z,3.70
2023-03-05T22:34:05.190Z,3.70
2023-03-05T22:36:31.989Z,3.70
2023-03-05T22:38:58.850Z,3.70
2023-03-05T22:41:25.841Z,3.70
2023-03-05T22:43:52.883Z,3.70
2023-03-05T22:46:24.457Z,3.70
2023-03-05T22:48:52.192Z,3.70
2023-03-05T22:51:19.811Z,3.70
2023-03-05T22:53:46.968Z,3.70
2023-03-05T22:56:16.174Z,3.70
2023-03-05T22:58:46.901Z,3.60
2023-03-05T23:01:24.497Z,3.60
2023-03-05T23:04:30.232Z,3.50
2023-03-05T23:06:59.546Z,3.50
2023-03-05T23:09:26.638Z,3.50
2023-03-05T23:11:53.844Z,3.40
2023-03-05T23:14:21.124Z,3.50
2023-03-05T23:16:48.392Z,3.50
2023-03-05T23:19:15.994Z,3.50
2023-03-05T23:21:43.535Z,3.50
2023-03-05T23:24:10.625Z,3.50
2023-03-05T23:26:41.058Z,3.50
2023-03-05T23:29:08.255Z,3.50
2023-03-05T23:31:38.913Z,3.40
2023-03-05T23:34:06.457Z,3.50
2023-03-05T23:36:33.450Z,3.50
2023-03-05T23:39:00.866Z,3.50
2023-03-05T23:41:27.816Z,3.50
2023-03-05T23:43:55.872Z,3.50
2023-03-05T23:46:24.419Z,3.50
2023-03-05T23:48:52.914Z,3.50
2023-03-05T23:51:20.493Z,3.50
2023-03-05T23:53:48.493Z,3.40
2023-03-05T23:56:15.774Z,3.30
2023-03-05T23:58:44.174Z,3.40
